createdAt,value
2022-12-23T00:01:32.633Z,99218.13
2022-12-23T00:04:01.562Z,99223.22
2022-12-23T00:06:32.674Z,99216.53
2022-12-23T00:09:01.777Z,99210.59
2022-12-23T00:11:31.001Z,99200.00
2022-12-23T00:14:18.481Z,99192.53
2022-12-23T00:16:50.858Z,99197.25
2022-12-23T00:19:20.018Z,99186.22
2022-12-23T00:21:51.257Z,99190.97
2022-12-23T00:24:19.772Z,99196.13
2022-12-23T00:26:49.340Z,99185.56
2022-12-23T00:29:18.437Z,99184.75
2022-12-23T00:31:47.380Z,99182.38
2022-12-23T00:34:16.776Z,99185.94
2022-12-23T00:36:45.536Z,99185.16
2022-12-23T00:39:29.376Z,99186.72
2022-12-23T00:42:11.421Z,99181.63
2022-12-23T00:44:40.163Z,99180.88
2022-12-23T00:47:28.831Z,99177.69
2022-12-23T00:49:56.385Z,99179.28
2022-12-23T00:52:26.772Z,99176.97
2022-12-23T00:54:57.833Z,99167.50
2022-12-23T00:57:29.104Z,99179.38
2022-12-23T00:59:57.782Z,99166.78
2022-12-23T01:02:39.538Z,99177.44
2022-12-23T01:05:35.790Z,99173.88
2022-12-23T01:08:05.100Z,99170.34
2022-12-23T01:10:36.495Z,99163.66
2022-12-23T01:13:05.691Z,99166.88
2022-12-23T01:15:35.168Z,99173.22
2022-12-23T01:18:04.302Z,99177.13
2022-12-23T01:20:32.884Z,99166.13
2022-12-23T01:23:01.840Z,99164.66
2022-12-23T01:25:31.689Z,99160.19
2022-12-23T01:28:05.367Z,99163.75
2022-12-23T01:30:34.319Z,99163.38
2022-12-23T01:33:03.046Z,99168.88
2022-12-23T01:35:33.137Z,99170.88
2022-12-23T01:38:03.288Z,99170.09
2022-12-23T01:40:36.872Z,99175.59
2022-12-23T01:43:05.999Z,99169.72
2022-12-23T01:45:35.795Z,99165.44
2022-12-23T01:48:09.628Z,99164.66
2022-12-23T01:50:42.712Z,99168.97
2022-12-23T01:53:16.401Z,99166.25
2022-12-23T01:55:50.607Z,99174.16
2022-12-23T01:58:25.154Z,99171.78
2022-12-23T02:01:08.650Z,99172.59
2022-12-23T02:03:46.256Z,99169.47
2022-12-23T02:06:31.760Z,99180.50
2022-12-23T02:09:13.732Z,99171.84
2022-12-23T02:12:07.964Z,99181.28
2022-12-23T02:15:08.033Z,99181.28
2022-12-23T02:17:47.495Z,99182.44
2022-12-23T02:20:50.070Z,99182.88
2022-12-23T02:23:54.317Z,99178.94
2022-12-23T02:26:46.432Z,99186.81
2022-12-23T02:29:41.353Z,99196.22
2022-12-23T02:32:19.424Z,99199.38
2022-12-23T02:34:54.569Z,99199.00
2022-12-23T02:37:30.330Z,99197.81
2022-12-23T02:40:06.755Z,99195.44
2022-12-23T02:42:42.255Z,99197.41
2022-12-23T02:45:15.863Z,99211.16
2022-12-23T02:47:52.086Z,99213.56
2022-12-23T02:50:26.952Z,99215.91
2022-12-23T02:52:58.165Z,99219.84
2022-12-23T02:55:30.875Z,99217.06
2022-12-23T02:58:03.936Z,99206.47
2022-12-23T03:00:34.208Z,99211.97
2022-12-23T03:03:05.325Z,99211.19
2022-12-23T03:05:38.581Z,99216.31
2022-12-23T03:08:10.102Z,99216.72
2022-12-23T03:10:48.449Z,99224.19
2022-12-23T03:13:29.546Z,99228.91
2022-12-23T03:16:10.795Z,99219.06
2022-12-23T03:18:52.629Z,99228.13
2022-12-23T03:21:28.987Z,99232.84
2022-12-23T03:24:09.598Z,99236.00
2022-12-23T03:26:42.479Z,99234.03
2022-12-23T03:29:17.184Z,99231.25
2022-12-23T03:31:48.006Z,99236.38
2022-12-23T03:34:23.452Z,99246.59
2022-12-23T03:36:58.638Z,99239.13
2022-12-23T03:39:33.587Z,99244.25
2022-12-23T03:42:07.228Z,99241.50
2022-12-23T03:44:39.483Z,99238.38
2022-12-23T03:47:12.454Z,99243.09
2022-12-23T03:49:47.417Z,99241.50
2022-12-23T03:52:21.473Z,99248.19
2022-12-23T03:54:54.901Z,99242.28
2022-12-23T03:57:27.788Z,99251.72
2022-12-23T03:59:57.956Z,99251.72
2022-12-23T04:02:35.464Z,99256.84
2022-12-23T04:05:20.655Z,99257.22
2022-12-23T04:07:55.912Z,99255.25
2022-12-23T04:10:25.968Z,99258.81
2022-12-23T04:12:55.054Z,99259.97
2022-12-23T04:15:25.494Z,99265.50
2022-12-23T04:17:56.479Z,99263.13
2022-12-23T04:20:27.873Z,99266.28
2022-12-23T04:22:57.373Z,99269.03
2022-12-23T04:25:26.153Z,99273.38
2022-12-23T04:27:54.940Z,99276.13
2022-12-23T04:30:26.708Z,99272.19
2022-12-23T04:33:00.455Z,99282.03
2022-12-23T04:35:32.562Z,99284.78
2022-12-23T04:38:01.381Z,99282.81
2022-12-23T04:40:30.503Z,99285.56
2022-12-23T04:42:59.392Z,99295.81
2022-12-23T04:45:28.649Z,99292.25
2022-12-23T04:47:57.983Z,99301.31
2022-12-23T04:50:26.789Z,99307.63
2022-12-23T04:52:59.211Z,99312.72
2022-12-23T04:55:28.279Z,99313.13
2022-12-23T04:57:57.011Z,99308.78
2022-12-23T05:00:26.016Z,99313.50
2022-12-23T05:02:54.867Z,99316.28
2022-12-23T05:05:24.210Z,99320.97
2022-12-23T05:07:53.353Z,99316.69
2022-12-23T05:10:24.060Z,99319.03
2022-12-23T05:12:53.293Z,99328.06
2022-12-23T05:15:21.996Z,99326.91
2022-12-23T05:17:51.017Z,99337.91
2022-12-23T05:20:19.703Z,99343.41
2022-12-23T05:22:48.655Z,99345.00
2022-12-23T05:25:18.053Z,99349.72
2022-12-23T05:27:49.184Z,99352.88
2022-12-23T05:30:18.292Z,99350.91
2022-12-23T05:32:46.740Z,99357.22
2022-12-23T05:35:15.560Z,99354.44
2022-12-23T05:37:45.192Z,99367.47
2022-12-23T05:40:18.480Z,99368.22
2022-12-23T05:42:53.001Z,99368.63
2022-12-23T05:45:22.170Z,99371.38
2022-12-23T05:47:50.808Z,99380.03
2022-12-23T05:50:20.109Z,99375.69
2022-12-23T05:52:50.592Z,99374.91
2022-12-23T05:55:25.329Z,99363.88
2022-12-23T05:57:56.987Z,99394.19
2022-12-23T06:00:27.015Z,99386.31
2022-12-23T06:02:56.702Z,99370.94
2022-12-23T06:05:25.835Z,99393.41
2022-12-23T06:07:57.099Z,99414.66
2022-12-23T06:10:25.974Z,99429.59
2022-12-23T06:12:56.967Z,99429.19
2022-12-23T06:15:25.893Z,99437.09
2022-12-23T06:17:54.520Z,99455.19
2022-12-23T06:20:24.613Z,99451.22
2022-12-23T06:22:53.496Z,99456.34
2022-12-23T06:25:23.659Z,99457.53
2022-12-23T06:27:52.454Z,99461.47
2022-12-23T06:30:25.810Z,99464.97
2022-12-23T06:32:54.719Z,99466.13
2022-12-23T06:35:24.100Z,99465.34
2022-12-23T06:37:55.459Z,99468.47
2022-12-23T06:40:24.360Z,99477.91
2022-12-23T06:42:54.263Z,99483.81
2022-12-23T06:45:25.222Z,99484.59
2022-12-23T06:47:54.414Z,99489.72
2022-12-23T06:50:23.180Z,99488.91
2022-12-23T06:52:51.896Z,99492.81
2022-12-23T06:55:20.484Z,99503.41
2022-12-23T06:57:49.302Z,99510.13
2022-12-23T07:00:21.735Z,99513.25
2022-12-23T07:02:55.178Z,99523.84
2022-12-23T07:05:24.755Z,99523.84
2022-12-23T07:07:54.591Z,99529.34
2022-12-23T07:10:23.298Z,99549.78
2022-12-23T07:12:52.317Z,99541.53
2022-12-23T07:15:20.831Z,99548.53
2022-12-23T07:17:49.516Z,99563.88
2022-12-23T07:20:20.337Z,99563.09
2022-12-23T07:22:49.762Z,99570.56
2022-12-23T07:25:19.288Z,99568.16
2022-12-23T07:27:48.384Z,99576.78
2022-12-23T07:30:19.169Z,99570.09
2022-12-23T07:32:49.597Z,99585.03
2022-12-23T07:35:21.390Z,99576.75
2022-12-23T07:37:55.179Z,99589.75
2022-12-23T07:40:24.980Z,99592.47
2022-12-23T07:42:57.858Z,99606.59
2022-12-23T07:45:27.530Z,99603.84
2022-12-23T07:47:56.843Z,99608.97
2022-12-23T07:50:28.448Z,99605.41
2022-12-23T07:52:57.532Z,99613.69
2022-12-23T07:55:26.061Z,99621.94
2022-12-23T07:57:55.158Z,99625.44
2022-12-23T08:00:24.455Z,99618.75
2022-12-23T08:02:53.813Z,99630.22
2022-12-23T08:05:22.470Z,99633.69
2022-12-23T08:07:54.384Z,99645.94
2022-12-23T08:10:23.469Z,99650.25
2022-12-23T08:12:52.456Z,99657.81
2022-12-23T08:15:21.086Z,99663.25
2022-12-23T08:17:49.501Z,99665.28
2022-12-23T08:20:18.521Z,99663.69
2022-12-23T08:22:47.217Z,99668.03
2022-12-23T08:25:18.324Z,99678.63
2022-12-23T08:27:47.382Z,99678.69
2022-12-23T08:30:16.944Z,99689.59
2022-12-23T08:32:46.117Z,99688.13
2022-12-23T08:35:14.951Z,99692.47
2022-12-23T08:37:45.208Z,99702.66
2022-12-23T08:40:14.338Z,99697.59
2022-12-23T08:42:45.005Z,99706.28
2022-12-23T08:45:15.592Z,99705.84
2022-12-23T08:47:44.564Z,99714.13
2022-12-23T08:50:13.488Z,99709.00
2022-12-23T08:52:42.813Z,99715.00
2022-12-23T08:55:11.576Z,99727.66
2022-12-23T08:57:40.644Z,99724.13
2022-12-23T09:00:13.949Z,99720.59
2022-12-23T09:02:42.951Z,99728.94
2022-12-23T09:05:11.861Z,99728.13
2022-12-23T09:07:41.018Z,99731.28
2022-12-23T09:10:12.497Z,99727.34
2022-12-23T09:12:43.048Z,99731.28
2022-12-23T09:15:17.101Z,99740.78
2022-12-23T09:17:46.762Z,99745.34
2022-12-23T09:20:15.635Z,99754.88
2022-12-23T09:22:44.500Z,99755.66
2022-12-23T09:25:14.440Z,99751.34
2022-12-23T09:27:43.424Z,99739.16
2022-12-23T09:30:16.072Z,99725.47
2022-12-23T09:32:45.142Z,99720.41
2022-12-23T09:35:13.970Z,99726.69
2022-12-23T09:37:43.407Z,99733.34
2022-12-23T09:40:14.800Z,99737.22
2022-12-23T09:42:57.444Z,99739.88
2022-12-23T09:45:52.027Z,99738.69
2022-12-23T09:48:25.673Z,99727.47
2022-12-23T09:50:55.327Z,99728.97
2022-12-23T09:53:29.006Z,99757.19
2022-12-23T09:56:03.778Z,99765.09
2022-12-23T09:58:40.476Z,99756.03
2022-12-23T10:01:24.834Z,99761.91
2022-12-23T10:04:11.804Z,99757.22
2022-12-23T10:06:43.275Z,99762.81
2022-12-23T10:09:15.419Z,99769.16
2022-12-23T10:11:49.149Z,99761.13
2022-12-23T10:14:21.355Z,99757.75
2022-12-23T10:16:57.441Z,99763.31
2022-12-23T10:19:32.156Z,99756.25
2022-12-23T10:22:06.038Z,99751.00
2022-12-23T10:24:40.665Z,99762.94
2022-12-23T10:27:24.993Z,99767.69
2022-12-23T10:29:54.842Z,99769.34
2022-12-23T10:32:36.852Z,99769.72
2022-12-23T10:35:12.771Z,99764.59
2022-12-23T10:37:47.176Z,99763.84
2022-12-23T10:40:24.546Z,99761.00
2022-12-23T10:43:02.270Z,99769.16
2022-12-23T10:45:42.537Z,99776.09
2022-12-23T10:48:29.459Z,99781.28
2022-12-23T10:51:04.583Z,99786.34
2022-12-23T10:53:42.846Z,99772.94
2022-12-23T10:56:12.075Z,99776.00
2022-12-23T10:58:47.735Z,99765.81
2022-12-23T11:01:26.528Z,99766.09
2022-12-23T11:04:16.606Z,99766.59
2022-12-23T11:06:55.806Z,99771.84
2022-12-23T11:09:42.524Z,99763.25
2022-12-23T11:12:14.584Z,99753.75
2022-12-23T11:14:53.440Z,99756.06
2022-12-23T11:17:24.660Z,99748.50
2022-12-23T11:20:14.702Z,99740.59
2022-12-23T11:22:50.309Z,99735.53
2022-12-23T11:25:32.291Z,99730.94
2022-12-23T11:28:05.063Z,99734.56
2022-12-23T11:30:37.983Z,99733.78
2022-12-23T11:33:07.873Z,99733.00
2022-12-23T11:35:39.411Z,99728.66
2022-12-23T11:38:16.065Z,99726.69
2022-12-23T11:40:49.032Z,99723.09
2022-12-23T11:43:21.070Z,99721.16
2022-12-23T11:45:49.914Z,99724.31
2022-12-23T11:48:32.757Z,99713.13
2022-12-23T11:51:06.247Z,99717.19
2022-12-23T11:53:37.203Z,99712.69
2022-12-23T11:56:11.411Z,99707.66
2022-12-23T11:58:47.418Z,99703.28
2022-12-23T12:01:20.085Z,99707.59
2022-12-23T12:03:58.564Z,99710.59
2022-12-23T12:06:30.627Z,99700.81
2022-12-23T12:09:02.754Z,99699.28
2022-12-23T12:11:41.685Z,99698.81
2022-12-23T12:14:21.397Z,99695.00
2022-12-23T12:17:00.581Z,99688.34
2022-12-23T12:19:35.288Z,99687.63
2022-12-23T12:22:15.582Z,99691.09
2022-12-23T12:24:49.964Z,99689.03
2022-12-23T12:27:22.755Z,99687.88
2022-12-23T12:29:57.766Z,99679.66
2022-12-23T12:32:38.221Z,99669.44
2022-12-23T12:35:18.406Z,99665.59
2022-12-23T12:37:54.875Z,99661.38
2022-12-23T12:40:32.990Z,99656.31
2022-12-23T12:43:13.028Z,99641.75
2022-12-23T12:45:49.526Z,99635.84
2022-12-23T12:48:32.416Z,99612.59
2022-12-23T12:51:06.164Z,99610.25
2022-12-23T12:53:52.101Z,99603.16
2022-12-23T12:57:10.419Z,99566.03
2022-12-23T12:59:47.290Z,99583.88
2022-12-23T13:02:46.540Z,99585.91
2022-12-23T13:06:29.330Z,99560.31
2022-12-23T13:09:03.937Z,99576.03
2022-12-23T13:11:44.583Z,99578.00
2022-12-23T13:14:33.764Z,99568.56
2022-12-23T13:17:31.541Z,99551.25
2022-12-23T13:20:25.563Z,99558.75
2022-12-23T13:23:43.364Z,99550.09
2022-12-23T13:26:35.006Z,99514.97
2022-12-23T13:33:16.824Z,99531.53
2022-12-23T13:36:06.136Z,99520.47
2022-12-23T13:38:59.865Z,99518.56
2022-12-23T13:41:34.521Z,99507.91
2022-12-23T13:44:05.294Z,99503.16
2022-12-23T13:46:48.592Z,99513.00
2022-12-23T13:49:26.967Z,99507.44
2022-12-23T13:52:05.401Z,99507.50
2022-12-23T13:54:48.415Z,99487.38
2022-12-23T13:57:30.727Z,99486.56
2022-12-23T14:01:07.469Z,99458.94
2022-12-23T14:03:39.110Z,99485.38
2022-12-23T14:06:23.441Z,99491.25
2022-12-23T14:08:53.873Z,99468.81
2022-12-23T14:11:31.751Z,99461.38
2022-12-23T14:14:04.504Z,99460.56
2022-12-23T14:16:53.683Z,99436.53
2022-12-23T14:19:37.743Z,99459.00
2022-12-23T14:22:24.021Z,99453.09
2022-12-23T14:25:26.429Z,99453.88
2022-12-23T14:28:03.805Z,99444.84
2022-12-23T14:30:38.361Z,99435.00
2022-12-23T14:33:18.822Z,99435.00
2022-12-23T14:35:55.966Z,99426.75
2022-12-23T14:38:33.056Z,99422.03
2022-12-23T14:41:26.900Z,99422.44
2022-12-23T14:43:59.271Z,99406.31
2022-12-23T14:47:00.396Z,99408.25
2022-12-23T14:49:45.911Z,99400.78
2022-12-23T14:52:50.411Z,99407.47
2022-12-23T14:55:55.303Z,99405.47
2022-12-23T14:58:41.304Z,99392.50
2022-12-23T15:01:13.910Z,99381.47
2022-12-23T15:04:01.283Z,99391.31
2022-12-23T15:06:37.094Z,99385.78
2022-12-23T15:09:08.151Z,99379.47
2022-12-23T15:11:38.347Z,99382.63
2022-12-23T15:14:18.570Z,99381.84
2022-12-23T15:16:47.800Z,99382.22
2022-12-23T15:19:27.583Z,99379.50
2022-12-23T15:22:20.667Z,99380.66
2022-12-23T15:24:51.775Z,99386.16
2022-12-23T15:27:30.312Z,99369.19
2022-12-23T15:30:00.100Z,99359.31
2022-12-23T15:32:31.183Z,99359.75
2022-12-23T15:35:06.295Z,99356.19
2022-12-23T15:37:36.269Z,99359.31
2022-12-23T15:40:13.172Z,99338.47
2022-12-23T15:42:49.121Z,99343.22
2022-12-23T15:45:34.364Z,99336.13
2022-12-23T15:48:04.400Z,99344.44
2022-12-23T15:50:42.975Z,99327.47
2022-12-23T15:53:17.193Z,99333.00
2022-12-23T15:55:48.005Z,99323.16
2022-12-23T15:58:25.517Z,99294.03
2022-12-23T16:00:57.145Z,99312.94
2022-12-23T16:03:32.190Z,99310.56
2022-12-23T16:06:12.765Z,99301.94
2022-12-23T16:08:42.075Z,99295.22
2022-12-23T16:11:16.759Z,99303.06
2022-12-23T16:13:58.844Z,99300.31
2022-12-23T16:16:41.591Z,99291.69
2022-12-23T16:19:42.079Z,99289.63
2022-12-23T16:22:35.256Z,99291.22
2022-12-23T16:25:19.395Z,99262.88
2022-12-23T16:27:50.640Z,99256.19
2022-12-23T16:30:23.627Z,99255.78
2022-12-23T16:32:58.122Z,99281.75
2022-12-23T16:35:39.204Z,99282.19
2022-12-23T16:38:18.125Z,99282.19
2022-12-23T16:40:48.815Z,99284.13
2022-12-23T16:43:18.356Z,99288.09
2022-12-23T16:45:50.764Z,99280.16
2022-12-23T16:48:27.116Z,99277.88
2022-12-23T16:50:56.241Z,99265.69
2022-12-23T16:53:28.179Z,99270.00
2022-12-23T16:56:00.792Z,99265.66
2022-12-23T16:58:30.443Z,99256.63
2022-12-23T17:00:59.290Z,99244.84
2022-12-23T17:03:29.152Z,99244.03
2022-12-23T17:05:57.799Z,99238.56
2022-12-23T17:08:28.448Z,99232.66
2022-12-23T17:10:58.004Z,99234.66
2022-12-23T17:13:26.451Z,99240.56
2022-12-23T17:15:55.122Z,99240.19
2022-12-23T17:18:23.739Z,99235.06
2022-12-23T17:20:52.566Z,99249.19
2022-12-23T17:23:31.978Z,99244.09
2022-12-23T17:26:01.168Z,99231.91
2022-12-23T17:28:32.706Z,99245.66
2022-12-23T17:31:08.672Z,99253.13
2022-12-23T17:33:41.346Z,99244.88
2022-12-23T17:36:12.016Z,99238.63
2022-12-23T17:38:43.062Z,99236.25
2022-12-23T17:41:28.899Z,99231.16
2022-12-23T17:43:57.929Z,99226.84
2022-12-23T17:46:27.171Z,99225.25
2022-12-23T17:48:56.599Z,99239.03
2022-12-23T17:51:28.767Z,99234.34
2022-12-23T17:54:00.100Z,99227.63
2022-12-23T17:56:30.469Z,99230.78
2022-12-23T17:59:00.151Z,99233.91
2022-12-23T18:01:35.127Z,99226.06
2022-12-23T18:04:06.537Z,99210.34
2022-12-23T18:06:38.047Z,99202.06
2022-12-23T18:09:08.846Z,99215.44
2022-12-23T18:11:41.646Z,99215.81
2022-12-23T18:14:17.904Z,99209.53
2022-12-23T18:16:47.230Z,99218.19
2022-12-23T18:19:20.344Z,99215.84
2022-12-23T18:21:50.078Z,99211.88
2022-12-23T18:24:21.065Z,99207.16
2022-12-23T18:26:51.033Z,99203.25
2022-12-23T18:29:20.727Z,99195.41
2022-12-23T18:31:52.758Z,99190.66
2022-12-23T18:34:22.392Z,99189.50
2022-12-23T18:36:52.503Z,99185.94
2022-12-23T18:39:26.338Z,99176.13
2022-12-23T18:41:55.928Z,99170.25
2022-12-23T18:44:25.205Z,99167.50
2022-12-23T18:46:54.082Z,99170.25
2022-12-23T18:49:23.473Z,99163.53
2022-12-23T18:51:52.240Z,99165.13
2022-12-23T18:54:23.235Z,99160.00
2022-12-23T18:56:52.248Z,99164.75
2022-12-23T18:59:30.038Z,99156.88
2022-12-23T19:01:59.382Z,99159.25
2022-12-23T19:04:31.888Z,99150.19
2022-12-23T19:07:00.741Z,99144.69
2022-12-23T19:09:31.699Z,99150.97
2022-12-23T19:12:00.260Z,99155.31
2022-12-23T19:14:29.886Z,99151.38
2022-12-23T19:17:02.104Z,99158.06
2022-12-23T19:19:35.032Z,99156.50
2022-12-23T19:22:04.041Z,99147.84
2022-12-23T19:24:35.688Z,99145.88
2022-12-23T19:27:05.000Z,99156.50
2022-12-23T19:29:33.751Z,99163.53
2022-12-23T19:32:04.092Z,99160.00
2022-12-23T19:34:35.173Z,99163.94
2022-12-23T19:37:05.957Z,99176.88
2022-12-23T19:39:46.669Z,99168.63
2022-12-23T19:42:20.238Z,99183.97
2022-12-23T19:44:54.574Z,99178.47
2022-12-23T19:47:25.372Z,99176.88
2022-12-23T19:49:54.639Z,99178.88
2022-12-23T19:52:32.461Z,99177.69
2022-12-23T19:55:16.992Z,99178.09
2022-12-23T19:57:49.177Z,99182.00
2022-12-23T20:00:31.601Z,99178.84
2022-12-23T20:03:11.945Z,99178.84
2022-12-23T20:05:41.497Z,99185.88
2022-12-23T20:08:13.953Z,99184.72
2022-12-23T20:10:50.549Z,99176.47
2022-12-23T20:13:22.385Z,99189.84
2022-12-23T20:15:51.512Z,99197.72
2022-12-23T20:18:20.475Z,99186.69
2022-12-23T20:20:56.554Z,99187.84
2022-12-23T20:23:28.573Z,99190.59
2022-12-23T20:26:02.916Z,99175.31
2022-12-23T20:28:35.885Z,99186.72
2022-12-23T20:31:12.246Z,99192.63
2022-12-23T20:33:43.977Z,99183.97
2022-12-23T20:36:31.779Z,99201.63
2022-12-23T20:39:07.081Z,99195.34
2022-12-23T20:41:49.903Z,99193.78
2022-12-23T20:44:35.086Z,99201.25
2022-12-23T20:47:07.967Z,99205.97
2022-12-23T20:49:37.555Z,99211.47
2022-12-23T20:52:12.222Z,99210.69
2022-12-23T20:54:41.601Z,99223.25
2022-12-23T20:57:18.358Z,99226.38
2022-12-23T20:59:54.182Z,99224.81
2022-12-23T21:02:26.650Z,99226.38
2022-12-23T21:05:00.806Z,99225.97
2022-12-23T21:07:38.364Z,99225.19
2022-12-23T21:10:16.280Z,99217.31
2022-12-23T21:12:52.263Z,99233.03
2022-12-23T21:15:23.841Z,99236.59
2022-12-23T21:17:56.655Z,99246.41
2022-12-23T21:20:31.733Z,99254.63
2022-12-23T21:23:08.112Z,99269.16
2022-12-23T21:25:39.837Z,99263.72
2022-12-23T21:28:27.179Z,99261.34
2022-12-23T21:30:58.883Z,99255.41
2022-12-23T21:33:28.014Z,99255.41
2022-12-23T21:36:01.545Z,99268.38
2022-12-23T21:38:39.833Z,99273.88
2022-12-23T21:41:12.855Z,99280.56
2022-12-23T21:43:45.042Z,99284.06
2022-12-23T21:46:18.375Z,99286.44
2022-12-23T21:48:52.206Z,99287.19
2022-12-23T21:51:40.718Z,99299.81
2022-12-23T21:54:14.195Z,99310.03
2022-12-23T21:56:52.789Z,99301.34
2022-12-23T21:59:34.942Z,99318.72
2022-12-23T22:02:11.049Z,99310.81
2022-12-23T22:04:44.507Z,99317.13
2022-12-23T22:07:17.085Z,99310.41
2022-12-23T22:09:49.597Z,99320.63
2022-12-23T22:12:19.237Z,99330.03
2022-12-23T22:14:54.539Z,99328.06
2022-12-23T22:17:25.728Z,99328.84
2022-12-23T22:20:13.830Z,99324.84
2022-12-23T22:22:44.168Z,99341.00
2022-12-23T22:25:13.545Z,99353.97
2022-12-23T22:27:42.476Z,99356.34
2022-12-23T22:30:14.951Z,99361.84
2022-12-23T22:32:45.607Z,99370.88
2022-12-23T22:35:15.702Z,99358.63
2022-12-23T22:37:45.115Z,99374.34
2022-12-23T22:40:15.302Z,99376.22
2022-12-23T22:42:44.035Z,99383.75
2022-12-23T22:45:16.382Z,99387.69
2022-12-23T22:47:47.784Z,99395.13
2022-12-23T22:50:17.921Z,99402.63
2022-12-23T22:52:46.960Z,99403.00
2022-12-23T22:55:16.756Z,99404.22
2022-12-23T22:57:48.005Z,99408.94
2022-12-23T23:00:21.462Z,99410.13
2022-12-23T23:02:55.563Z,99414.41
2022-12-23T23:05:24.361Z,99421.09
2022-12-23T23:07:58.856Z,99435.59
2022-12-23T23:10:33.648Z,99434.41
2022-12-23T23:13:04.380Z,99442.66
2022-12-23T23:15:40.377Z,99441.09
2022-12-23T23:18:10.790Z,99437.56
2022-12-23T23:20:42.063Z,99452.13
2022-12-23T23:23:15.715Z,99464.63
2022-12-23T23:25:51.313Z,99462.22
2022-12-23T23:28:38.799Z,99465.78
2022-12-23T23:34:05.695Z,99481.09
2022-12-23T23:36:36.784Z,99475.25
2022-12-23T23:39:08.326Z,99494.06
2022-12-23T23:41:40.986Z,99486.56
2022-12-23T23:44:14.176Z,99488.88
2022-12-23T23:46:51.336Z,99483.25
2022-12-23T23:49:20.795Z,99506.53
2022-12-23T23:51:50.136Z,99493.91
2022-12-23T23:54:35.722Z,99502.13
